Time;durP1;ratioP1;P1;durP2;ratioP2;P2;SDS_P1;SDS_P2;PMS_P1;PMS_P2;Temp;Humidity;BMP_temperature;BMP_pressure;BME280_temperature;BME280_humidity;BME280_pressure;Samples;Min_cycle;Max_cycle;Signal;HPM_P1;HPM_P2
2022/05/25 00:00:59;;;;;;;1.30;1.00;;;13.60;69.70;;;;;;5026265;28;20371;-80
2022/05/25 00:03:26;;;;;;;3.80;0.93;;;13.60;70.00;;;;;;5055443;28;20094;-80
2022/05/25 00:05:52;;;;;;;3.78;1.15;;;13.50;70.00;;;;;;5044521;28;20830;-80
2022/05/25 00:08:18;;;;;;;1.17;0.70;;;13.50;70.00;;;;;;5015613;28;20034;-81
2022/05/25 00:10:43;;;;;;;4.53;1.67;;;13.50;69.50;;;;;;5027493;28;20029;-81
2022/05/25 00:13:09;;;;;;;6.50;1.13;;;13.50;69.30;;;;;;5015275;28;20037;-81
2022/05/25 00:15:35;;;;;;;1.75;0.80;;;13.50;69.30;;;;;;5014134;28;20061;-80
2022/05/25 00:18:01;;;;;;;1.20;1.02;;;13.50;69.40;;;;;;5015653;28;20084;-81
2022/05/25 00:20:27;;;;;;;2.95;0.93;;;13.40;69.40;;;;;;5019379;28;20109;-80
2022/05/25 00:22:54;;;;;;;2.95;1.00;;;13.30;69.90;;;;;;5029150;28;20060;-81
2022/05/25 00:25:33;;;;;;;3.28;0.98;;;13.30;70.30;;;;;;5015301;28;20046;-80
2022/05/25 00:28:00;;;;;;;1.08;0.85;;;13.20;71.00;;;;;;5015055;28;20048;-81
2022/05/25 00:30:27;;;;;;;2.90;0.80;;;13.30;70.90;;;;;;5015629;28;20030;-81
2022/05/25 00:32:54;;;;;;;0.88;0.65;;;13.20;70.60;;;;;;5023116;28;20029;-80
2022/05/25 00:35:21;;;;;;;3.15;1.08;;;13.20;70.70;;;;;;5029636;28;20029;-80
2022/05/25 00:37:47;;;;;;;1.05;0.77;;;13.10;71.10;;;;;;5015202;28;20220;-80
2022/05/25 00:40:23;;;;;;;1.50;1.08;;;12.90;71.70;;;;;;5015133;28;20061;-80
2022/05/25 00:42:49;;;;;;;1.70;0.88;;;12.80;71.20;;;;;;5014961;28;20083;-80
2022/05/25 00:45:15;;;;;;;1.33;0.73;;;12.90;71.50;;;;;;5014880;28;20060;-80
2022/05/25 00:48:00;;;;;;;3.15;0.82;;;12.90;71.60;;;;;;5014822;28;20029;-80
2022/05/25 00:50:26;;;;;;;1.55;0.70;;;12.90;71.20;;;;;;5014665;28;20041;-80
2022/05/25 00:52:52;;;;;;;2.88;1.08;;;12.90;71.10;;;;;;5014634;28;20021;-80
2022/05/25 00:55:28;;;;;;;2.15;1.08;;;12.90;71.10;;;;;;5014693;28;20106;-80
2022/05/25 00:57:57;;;;;;;2.55;1.00;;;12.90;70.60;;;;;;5029949;28;20121;-80
2022/05/25 01:00:26;;;;;;;2.20;1.15;;;12.80;70.90;;;;;;5014832;28;20045;-80
2022/05/25 01:03:10;;;;;;;1.42;1.00;;;12.90;70.80;;;;;;5014575;28;20444;-81
2022/05/25 01:05:56;;;;;;;2.00;1.17;;;12.80;71.40;;;;;;5014600;28;20515;-81
2022/05/25 01:08:49;;;;;;;3.53;1.30;;;12.80;70.60;;;;;;5014428;28;20116;-80
2022/05/25 01:11:18;;;;;;;1.98;1.23;;;12.80;70.80;;;;;;5013008;28;20045;-80
2022/05/25 01:14:02;;;;;;;2.35;1.20;;;12.70;71.70;;;;;;5014224;28;20022;-80
2022/05/25 01:16:39;;;;;;;3.63;1.40;;;12.70;71.60;;;;;;5013261;28;20435;-80
2022/05/25 01:19:11;;;;;;;3.90;1.23;;;12.60;71.90;;;;;;5020218;28;20506;-80
2022/05/25 01:21:51;;;;;;;6.47;1.25;;;12.60;71.80;;;;;;5033939;28;20044;-81
2022/05/25 01:24:35;;;;;;;1.90;0.98;;;12.50;72.30;;;;;;5034160;28;20017;-80
2022/05/25 01:27:19;;;;;;;5.10;1.38;;;12.60;71.90;;;;;;5015506;28;20144;-80
2022/05/25 01:30:05;;;;;;;3.38;1.13;;;12.60;71.40;;;;;;5014187;28;20022;-80
2022/05/25 01:32:45;;;;;;;4.20;1.63;;;12.70;72.00;;;;;;5018769;28;20025;-80
2022/05/25 01:35:29;;;;;;;;;;;12.70;71.60;;;;;;5033622;28;20037;-80
2022/05/25 01:37:58;;;;;;;2.70;1.20;;;12.70;71.60;;;;;;5028427;28;20007;-80
2022/05/25 01:40:37;;;;;;;3.80;1.25;;;12.70;71.40;;;;;;5014016;28;20030;-80
2022/05/25 01:43:12;;;;;;;4.10;1.38;;;12.70;71.30;;;;;;5012429;28;20416;-80
2022/05/25 01:45:48;;;;;;;1.73;1.02;;;12.80;71.20;;;;;;5029017;28;20054;-80
2022/05/25 01:48:17;;;;;;;1.63;1.05;;;12.70;71.40;;;;;;5033460;28;20049;-80
2022/05/25 01:51:20;;;;;;;4.05;1.42;;;12.70;71.50;;;;;;5033640;28;20029;-80
2022/05/25 01:53:52;;;;;;;1.45;1.02;;;12.70;71.50;;;;;;5013910;28;20180;-80
2022/05/25 01:56:23;;;;;;;2.08;1.65;;;12.70;71.50;;;;;;5013945;28;20408;-80
2022/05/25 01:58:54;;;;;;;3.13;1.65;;;12.60;71.70;;;;;;5014038;28;20404;-80
2022/05/25 02:01:21;;;;;;;3.72;1.30;;;12.50;72.30;;;;;;5045426;28;20037;-81
2022/05/25 02:06:31;;;;;;;4.93;1.60;;;12.40;72.50;;;;;;5013722;28;20044;-80
2022/05/25 02:09:08;;;;;;;4.47;1.75;;;12.40;72.60;;;;;;5012437;28;20492;-80
2022/05/25 02:11:36;;;;;;;5.35;1.70;;;12.30;73.30;;;;;;5017412;28;20049;-80
2022/05/25 02:14:10;;;;;;;5.25;1.60;;;12.30;73.00;;;;;;5033397;28;20081;-80
2022/05/25 02:16:38;;;;;;;2.42;1.25;;;12.30;72.70;;;;;;5033275;28;20100;-80
2022/05/25 02:19:27;;;;;;;2.92;2.08;;;12.20;72.70;;;;;;5020156;28;20025;-80
2022/05/25 02:22:29;;;;;;;4.07;1.42;;;12.20;73.10;;;;;;5045917;28;20025;-80
2022/05/25 02:25:19;;;;;;;2.42;1.52;;;12.20;73.10;;;;;;5006823;28;20065;-80
2022/05/25 02:27:52;;;;;;;2.88;1.50;;;12.20;72.80;;;;;;5019532;28;20034;-80
2022/05/25 02:30:29;;;;;;;5.10;1.23;;;12.20;73.00;;;;;;5013275;28;20030;-80
2022/05/25 02:33:07;;;;;;;2.20;1.67;;;12.10;73.90;;;;;;5021741;28;20032;-80
2022/05/25 02:35:34;;;;;;;3.42;2.05;;;12.20;73.60;;;;;;5027287;28;20091;-80
2022/05/25 02:38:04;;;;;;;2.58;1.52;;;12.20;73.50;;;;;;5013177;28;20030;-80
2022/05/25 02:40:30;;;;;;;2.03;1.58;;;12.30;73.10;;;;;;5013392;28;20036;-80
2022/05/25 02:42:55;;;;;;;4.95;2.17;;;12.30;73.00;;;;;;5013229;28;20534;-80
2022/05/25 02:45:21;;;;;;;2.28;1.70;;;12.20;72.90;;;;;;5013232;28;20030;-81
2022/05/25 02:47:48;;;;;;;3.15;1.80;;;12.30;72.70;;;;;;5017101;28;20029;-80
2022/05/25 02:50:14;;;;;;;3.67;1.63;;;12.30;72.50;;;;;;5017799;28;20112;-81
2022/05/25 02:52:39;;;;;;;2.28;1.55;;;12.30;72.50;;;;;;5035693;28;20068;-80
2022/05/25 02:55:06;;;;;;;2.90;1.92;;;12.30;72.40;;;;;;5036702;28;20041;-80
2022/05/25 02:57:32;;;;;;;5.88;2.08;;;12.30;72.20;;;;;;5035386;28;20050;-80
2022/05/25 02:59:57;;;;;;;6.05;2.15;;;12.20;72.20;;;;;;5031334;28;20037;-81
2022/05/25 03:02:23;;;;;;;2.67;1.92;;;12.20;72.70;;;;;;5016878;28;20030;-80
2022/05/25 03:04:52;;;;;;;2.72;1.50;;;12.20;73.00;;;;;;5017086;28;20440;-80
2022/05/25 03:07:18;;;;;;;2.90;2.00;;;12.20;73.00;;;;;;5016603;28;20066;-80
2022/05/25 03:09:44;;;;;;;3.35;1.67;;;12.20;72.80;;;;;;5016703;28;20093;-80
2022/05/25 03:12:10;;;;;;;4.35;1.77;;;12.10;72.90;;;;;;5016461;28;20054;-80
2022/05/25 03:14:36;;;;;;;4.55;1.85;;;12.10;72.90;;;;;;5016656;28;20026;-80
2022/05/25 03:17:12;;;;;;;5.32;2.00;;;12.10;72.80;;;;;;5016665;28;20053;-80
2022/05/25 03:19:39;;;;;;;3.38;1.75;;;12.00;72.90;;;;;;5016551;28;20514;-80
2022/05/25 03:22:05;;;;;;;3.50;1.48;;;12.00;73.10;;;;;;5035150;28;20033;-80
2022/05/25 03:24:30;;;;;;;4.43;2.17;;;12.10;72.80;;;;;;5033281;28;20029;-80
2022/05/25 03:26:58;;;;;;;4.43;1.70;;;12.00;73.20;;;;;;5016240;28;20084;-80
2022/05/25 03:29:23;;;;;;;2.33;1.85;;;11.90;73.40;;;;;;5015283;28;20033;-80
2022/05/25 03:31:50;;;;;;;6.25;1.95;;;11.80;73.30;;;;;;5016366;28;20040;-80
2022/05/25 03:34:17;;;;;;;2.28;1.77;;;11.80;74.10;;;;;;5030434;28;20014;-80
2022/05/25 03:36:43;;;;;;;2.80;1.92;;;11.80;73.70;;;;;;5015165;28;20036;-80
2022/05/25 03:39:09;;;;;;;4.40;1.80;;;11.80;73.70;;;;;;5016363;28;20030;-80
2022/05/25 03:41:35;;;;;;;4.13;1.70;;;11.80;73.50;;;;;;5016135;28;20105;-80
2022/05/25 03:44:01;;;;;;;3.78;1.90;;;11.80;73.30;;;;;;5015802;28;20058;-80
2022/05/25 03:46:27;;;;;;;2.80;1.77;;;11.80;73.40;;;;;;5016145;28;20038;-80
2022/05/25 03:48:52;;;;;;;4.47;1.90;;;11.80;73.60;;;;;;5015877;28;20026;-80
2022/05/25 03:51:18;;;;;;;4.30;1.92;;;11.80;73.50;;;;;;5015689;28;20313;-80
2022/05/25 03:53:44;;;;;;;2.75;2.10;;;11.80;73.50;;;;;;5015990;28;20092;-80
2022/05/25 03:56:12;;;;;;;3.15;2.10;;;11.80;73.30;;;;;;5015998;28;20054;-80
2022/05/25 03:58:37;;;;;;;6.07;2.22;;;11.80;73.30;;;;;;5014186;28;20034;-80
2022/05/25 04:01:03;;;;;;;3.17;1.95;;;11.80;73.10;;;;;;5015719;28;20033;-80
2022/05/25 04:03:29;;;;;;;2.95;2.00;;;11.80;73.20;;;;;;5014492;28;20066;-80
2022/05/25 04:05:55;;;;;;;4.60;2.30;;;11.80;73.30;;;;;;5014228;28;20026;-81
2022/05/25 04:08:20;;;;;;;4.47;2.08;;;11.80;73.10;;;;;;5015638;28;20041;-80
2022/05/25 04:10:46;;;;;;;2.58;1.73;;;11.80;73.10;;;;;;5031158;28;20037;-80
2022/05/25 04:13:12;;;;;;;2.60;1.90;;;11.70;73.90;;;;;;5015580;28;20029;-80
2022/05/25 04:15:37;;;;;;;4.15;2.22;;;11.70;73.40;;;;;;5014581;28;20030;-81
2022/05/25 04:18:04;;;;;;;5.30;2.30;;;11.70;73.50;;;;;;5030761;28;20026;-80
2022/05/25 04:20:30;;;;;;;2.92;1.80;;;11.70;73.60;;;;;;5021247;28;20079;-80
2022/05/25 04:22:57;;;;;;;2.97;2.05;;;11.60;72.90;;;;;;5029764;28;20406;-80
2022/05/25 04:25:25;;;;;;;3.40;1.65;;;11.60;73.80;;;;;;5015418;28;20032;-81
2022/05/25 04:27:53;;;;;;;3.45;2.47;;;11.60;73.50;;;;;;5014940;28;20030;-80
2022/05/25 04:30:22;;;;;;;6.68;2.50;;;11.70;73.50;;;;;;5015270;28;20018;-80
2022/05/25 04:32:47;;;;;;;10.95;2.47;;;11.60;73.40;;;;;;5022491;28;20025;-81
2022/05/25 04:35:15;;;;;;;4.28;2.13;;;11.60;73.30;;;;;;5034927;28;20067;-80
2022/05/25 04:37:49;;;;;;;3.78;2.00;;;11.70;73.10;;;;;;5035356;28;20523;-80
2022/05/25 04:40:19;;;;;;;6.25;2.28;;;11.70;73.20;;;;;;5029641;28;20025;-81
2022/05/25 04:42:45;;;;;;;2.22;1.63;;;11.70;73.30;;;;;;5054598;28;20073;-80
2022/05/25 04:45:12;;;;;;;3.15;2.22;;;11.60;73.70;;;;;;5034540;28;20108;-77
2022/05/25 04:47:38;;;;;;;3.75;2.00;;;11.60;73.30;;;;;;5033428;28;20108;-78
2022/05/25 04:50:07;;;;;;;3.92;2.05;;;11.70;73.30;;;;;;5034833;28;20049;-80
2022/05/25 04:52:37;;;;;;;4.43;2.08;;;11.70;73.00;;;;;;5050211;28;20026;-78
2022/05/25 04:55:03;;;;;;;;;;;11.80;73.00;;;;;;5035231;28;20042;-78
2022/05/25 04:57:29;;;;;;;5.25;1.92;;;11.80;73.40;;;;;;5018395;28;20319;-77
2022/05/25 04:59:59;;;;;;;3.85;2.30;;;11.70;74.20;;;;;;5014405;28;20026;-78
2022/05/25 05:02:29;;;;;;;2.33;1.83;;;11.70;74.20;;;;;;5025893;28;20057;-81
2022/05/25 05:04:55;;;;;;;2.95;1.95;;;11.60;74.50;;;;;;5027562;28;20026;-85
2022/05/25 05:07:31;;;;;;;4.60;1.83;;;11.60;74.80;;;;;;5023697;28;20507;-81
2022/05/25 05:10:01;;;;;;;2.40;1.80;;;11.70;74.00;;;;;;5032587;28;20109;-82
2022/05/25 05:12:28;;;;;;;5.60;2.22;;;11.70;73.90;;;;;;5032797;28;20446;-79
2022/05/25 05:14:57;;;;;;;2.80;1.83;;;11.70;73.60;;;;;;5034355;28;20050;-80
2022/05/25 05:17:23;;;;;;;3.17;1.75;;;11.70;73.90;;;;;;5028249;28;20025;-83
2022/05/25 05:19:49;;;;;;;4.53;2.05;;;11.70;74.10;;;;;;5018395;28;20660;-82
2022/05/25 05:22:15;;;;;;;3.60;1.85;;;11.80;73.60;;;;;;5034170;28;20575;-83
2022/05/25 05:24:41;;;;;;;7.70;2.00;;;11.80;73.70;;;;;;5028653;28;20042;-82
2022/05/25 05:27:07;;;;;;;3.38;2.17;;;11.80;73.50;;;;;;5014264;28;20026;-82
2022/05/25 05:29:33;;;;;;;2.58;2.10;;;11.70;74.40;;;;;;5014199;28;20025;-83
2022/05/25 05:32:00;;;;;;;3.95;1.88;;;11.70;74.30;;;;;;5024418;28;20025;-80
2022/05/25 05:34:28;;;;;;;4.85;2.03;;;11.80;74.30;;;;;;5030410;28;20388;-83
2022/05/25 05:37:00;;;;;;;2.03;1.52;;;11.80;74.50;;;;;;5030328;28;20025;-81
2022/05/25 05:39:31;;;;;;;2.83;1.80;;;11.80;75.00;;;;;;5028913;28;20032;-81
2022/05/25 05:42:05;;;;;;;4.00;2.05;;;11.80;74.40;;;;;;5027912;28;20100;-81
2022/05/25 05:44:38;;;;;;;3.55;2.20;;;11.80;74.80;;;;;;5030477;28;20404;-80
2022/05/25 05:47:08;;;;;;;2.78;1.85;;;11.80;74.90;;;;;;5033853;28;20093;-83
2022/05/25 05:49:36;;;;;;;5.03;2.42;;;11.90;74.50;;;;;;5029496;28;20064;-81
2022/05/25 05:52:02;;;;;;;3.95;2.03;;;11.80;74.30;;;;;;5023599;28;20112;-84
2022/05/25 05:54:28;;;;;;;3.75;2.33;;;11.90;74.20;;;;;;5019154;28;20451;-83
2022/05/25 05:56:54;;;;;;;2.47;1.70;;;11.90;75.00;;;;;;5019117;28;20050;-84
2022/05/25 05:59:20;;;;;;;6.35;2.33;;;11.90;75.80;;;;;;5026379;28;20027;-84
2022/05/25 06:01:45;;;;;;;2.75;2.28;;;11.90;75.70;;;;;;5021136;28;20034;-84
2022/05/25 06:04:11;;;;;;;3.35;2.08;;;11.90;76.10;;;;;;5046628;28;20030;-83
2022/05/25 06:06:37;;;;;;;4.72;1.95;;;12.00;77.60;;;;;;5014019;28;20025;-84
2022/05/25 06:09:04;;;;;;;3.20;1.90;;;12.00;76.40;;;;;;5028409;28;20036;-81
2022/05/25 06:11:30;;;;;;;6.47;2.30;;;12.10;76.90;;;;;;5029744;28;20026;-81
2022/05/25 06:13:56;;;;;;;4.05;2.05;;;12.20;76.30;;;;;;5029367;28;20036;-81
2022/05/25 06:21:54;;;;;;;9.77;3.15;;;12.30;77.70;;;;;;5028829;28;20036;-81
2022/05/25 06:24:20;;;;;;;3.40;2.00;;;12.30;77.60;;;;;;5026377;28;20045;-81
2022/05/25 06:26:45;;;;;;;3.08;1.92;;;12.40;77.80;;;;;;5032856;28;20029;-81
2022/05/25 06:29:11;;;;;;;3.28;2.28;;;12.50;77.30;;;;;;5033166;28;20042;-81
2022/05/25 06:31:37;;;;;;;4.07;2.20;;;12.50;77.50;;;;;;5031447;28;20018;-81
2022/05/25 06:34:02;;;;;;;4.00;1.80;;;12.60;77.40;;;;;;5029948;28;20080;-83
2022/05/25 06:36:29;;;;;;;2.80;1.85;;;12.60;77.50;;;;;;5030838;28;20021;-80
2022/05/25 06:38:57;;;;;;;3.47;1.80;;;12.80;77.50;;;;;;5030234;28;20731;-80
2022/05/25 06:41:23;;;;;;;4.57;1.80;;;12.80;77.50;;;;;;5026860;28;20484;-80
2022/05/25 06:43:49;;;;;;;4.68;1.70;;;12.90;77.60;;;;;;5012661;28;20482;-81
2022/05/25 06:46:19;;;;;;;7.07;2.13;;;13.00;77.90;;;;;;5012003;28;20112;-80
2022/05/25 06:48:52;;;;;;;2.90;1.65;;;13.10;76.60;;;;;;5019661;28;20040;-81
2022/05/25 06:51:22;;;;;;;5.68;2.63;;;13.20;76.60;;;;;;5019608;28;20029;-79
2022/05/25 06:53:49;;;;;;;3.17;1.40;;;13.30;76.60;;;;;;5031432;28;20052;-81
2022/05/25 06:56:18;;;;;;;3.30;1.30;;;13.40;76.70;;;;;;5034135;28;20503;-81
2022/05/25 06:58:44;;;;;;;1.93;1.17;;;13.50;76.00;;;;;;5028070;28;20041;-81
2022/05/25 07:01:10;;;;;;;2.42;1.45;;;13.60;76.60;;;;;;5020252;28;20084;-81
2022/05/25 07:03:38;;;;;;;4.47;1.00;;;13.70;76.40;;;;;;5028600;28;20064;-81
2022/05/25 07:06:08;;;;;;;4.85;1.42;;;14.20;75.10;;;;;;5031007;28;20030;-81
2022/05/25 07:08:34;;;;;;;1.80;1.20;;;14.60;74.00;;;;;;5031382;28;20120;-80
2022/05/25 07:11:01;;;;;;;4.32;1.10;;;14.90;73.00;;;;;;5031830;28;20082;-82
2022/05/25 07:13:29;;;;;;;2.28;1.15;;;15.20;72.20;;;;;;5031546;28;20040;-81
2022/05/25 07:16:01;;;;;;;7.90;1.58;;;15.30;70.80;;;;;;5030632;28;20047;-81
2022/05/25 07:18:28;;;;;;;4.32;1.00;;;15.70;69.70;;;;;;5030372;28;20033;-78
2022/05/25 07:21:01;;;;;;;3.80;1.20;;;15.90;69.00;;;;;;5031610;28;20041;-80
2022/05/25 07:23:27;;;;;;;1.70;1.10;;;16.20;69.10;;;;;;5029133;28;20029;-82
2022/05/25 07:25:53;;;;;;;6.30;1.10;;;17.60;65.70;;;;;;5029961;28;20115;-81
2022/05/25 07:28:19;;;;;;;4.70;0.77;;;18.90;61.80;;;;;;5032322;28;20025;-81
2022/05/25 07:30:49;;;;;;;4.65;0.73;;;19.30;59.40;;;;;;5032371;28;20045;-82
2022/05/25 07:33:15;;;;;;;7.70;1.00;;;19.20;58.60;;;;;;5033782;28;20518;-82
2022/05/25 07:35:41;;;;;;;6.45;1.00;;;18.70;59.00;;;;;;5027517;28;20406;-82
2022/05/25 07:38:06;;;;;;;4.03;0.80;;;18.30;60.50;;;;;;5020972;28;20026;-80
2022/05/25 07:40:36;;;;;;;2.63;0.60;;;17.80;62.10;;;;;;5023442;28;20053;-82
2022/05/25 07:43:06;;;;;;;5.13;1.00;;;17.50;62.70;;;;;;5035063;28;20025;-81
2022/05/25 07:45:32;;;;;;;5.07;1.27;;;17.30;63.60;;;;;;5020228;28;20042;-80
2022/05/25 07:47:58;;;;;;;5.00;1.17;;;17.10;64.30;;;;;;5024841;28;20032;-81
2022/05/25 07:50:24;;;;;;;37.88;6.05;;;16.90;64.10;;;;;;5034192;28;20438;-84
2022/05/25 07:52:55;;;;;;;4.07;1.40;;;16.80;65.00;;;;;;5029619;28;20593;-81
2022/05/25 07:55:21;;;;;;;4.13;0.77;;;16.60;65.80;;;;;;5028597;28;20048;-80
2022/05/25 07:57:48;;;;;;;4.47;0.70;;;16.40;65.30;;;;;;5033336;28;20037;-80
2022/05/25 08:00:15;;;;;;;9.35;0.93;;;16.40;64.50;;;;;;5030006;28;20079;-80
2022/05/25 08:05:43;;;;;;;2.25;1.08;;;16.60;65.70;;;;;;5028800;28;20892;-81
2022/05/25 08:08:22;;;;;;;3.92;0.77;;;16.70;64.70;;;;;;5033803;28;20017;-81
2022/05/25 08:10:51;;;;;;;4.70;0.65;;;16.90;65.20;;;;;;5028350;28;20478;-81
2022/05/25 08:13:17;;;;;;;4.38;0.60;;;17.30;64.40;;;;;;5032338;28;20083;-81
2022/05/25 08:15:45;;;;;;;4.60;0.90;;;17.90;63.70;;;;;;5029300;28;20045;-81
2022/05/25 08:18:14;;;;;;;6.70;0.80;;;18.60;62.10;;;;;;5027744;28;20578;-81
2022/05/25 08:20:40;;;;;;;3.70;0.57;;;18.90;60.40;;;;;;5027631;28;20041;-81
2022/05/25 08:23:10;;;;;;;5.18;0.60;;;19.20;59.50;;;;;;5031583;28;20079;-81
2022/05/25 08:25:36;;;;;;;2.30;0.60;;;19.70;59.30;;;;;;5033309;28;20037;-81
2022/05/25 08:28:03;;;;;;;2.47;0.50;;;19.50;57.50;;;;;;5026536;28;21160;-81
2022/05/25 08:30:30;;;;;;;4.93;0.80;;;19.60;56.40;;;;;;5014630;28;20014;-81
2022/05/25 08:32:55;;;;;;;3.85;0.90;;;19.30;56.70;;;;;;5022050;28;20036;-81
2022/05/25 08:35:22;;;;;;;3.65;0.80;;;19.20;57.50;;;;;;5033097;28;20503;-81
2022/05/25 08:37:48;;;;;;;5.20;0.73;;;19.20;57.70;;;;;;5034592;28;20116;-81
2022/05/25 08:40:19;;;;;;;3.42;0.70;;;19.20;58.40;;;;;;5034807;28;20078;-80
2022/05/25 08:43:07;;;;;;;5.32;0.88;;;19.00;58.80;;;;;;5031433;28;20045;-80
2022/05/25 08:45:40;;;;;;;2.30;0.57;;;18.90;60.60;;;;;;5019781;28;20079;-81
2022/05/25 08:48:08;;;;;;;141.55;18.05;;;18.60;58.80;;;;;;5033559;28;20029;-81
2022/05/25 08:50:36;;;;;;;4.57;0.90;;;18.60;59.70;;;;;;5030230;28;20025;-82
2022/05/25 08:53:02;;;;;;;1.60;0.60;;;18.40;59.10;;;;;;5031852;28;20905;-81
2022/05/25 08:55:54;;;;;;;7.60;0.70;;;18.30;59.40;;;;;;5032684;28;20033;-80
2022/05/25 08:58:23;;;;;;;3.92;1.58;;;18.40;58.80;;;;;;5032283;28;20038;-81
2022/05/25 09:00:52;;;;;;;3.45;0.98;;;18.50;58.70;;;;;;5032744;28;20503;-81
2022/05/25 09:03:48;;;;;;;3.38;0.90;;;18.70;58.90;;;;;;5033005;28;20113;-81
2022/05/25 09:06:14;;;;;;;1.02;0.47;;;19.20;58.50;;;;;;5029971;28;20053;-82
2022/05/25 09:09:04;;;;;;;2.67;0.60;;;19.50;57.10;;;;;;5033767;28;20037;-81
2022/05/25 09:11:38;;;;;;;;;;;19.80;55.20;;;;;;5032336;28;20021;-81
2022/05/25 09:14:29;;;;;;;3.40;0.65;;;20.30;53.80;;;;;;5012795;28;19910;-81
2022/05/25 09:16:59;;;;;;;1.88;0.50;;;21.00;52.10;;;;;;5012792;28;20603;-81
2022/05/25 09:19:32;;;;;;;1.02;0.45;;;21.50;50.50;;;;;;5013109;28;20036;-81
2022/05/25 09:22:06;;;;;;;2.20;0.40;;;22.50;48.50;;;;;;5024335;28;20034;-81
2022/05/25 09:24:33;;;;;;;4.35;0.52;;;22.60;46.70;;;;;;5017277;28;20440;-81
2022/05/25 09:27:03;;;;;;;2.05;0.50;;;22.30;48.30;;;;;;5017090;28;20120;-81
2022/05/25 09:29:29;;;;;;;2.35;0.40;;;21.50;47.90;;;;;;5012926;28;20026;-81
2022/05/25 09:32:25;;;;;;;4.07;0.55;;;20.80;50.10;;;;;;5018712;28;20398;-80
2022/05/25 09:35:31;;;;;;;6.20;0.55;;;20.60;51.30;;;;;;5019178;28;20030;-81
2022/05/25 09:38:02;;;;;;;6.35;1.00;;;20.40;51.40;;;;;;5013825;28;20038;-81
2022/05/25 09:40:51;;;;;;;5.00;0.68;;;20.10;53.20;;;;;;5015524;28;20030;-81
2022/05/25 09:43:25;;;;;;;1.73;0.55;;;20.20;52.90;;;;;;5013901;28;20088;-81
2022/05/25 09:45:57;;;;;;;3.40;0.70;;;20.30;51.70;;;;;;5028708;28;20030;-81
2022/05/25 09:48:26;;;;;;;5.63;0.88;;;20.60;52.30;;;;;;5030573;28;20029;-81
2022/05/25 09:51:21;;;;;;;3.72;0.88;;;20.70;52.00;;;;;;5042373;28;20309;-81
2022/05/25 09:53:53;;;;;;;3.83;0.85;;;20.70;52.50;;;;;;5033469;28;20108;-81
2022/05/25 09:56:30;;;;;;;4.28;0.70;;;20.60;51.60;;;;;;5021296;28;20048;-81
2022/05/25 09:59:00;;;;;;;1.92;0.65;;;20.60;52.30;;;;;;5019382;28;20058;-81
2022/05/25 10:01:44;;;;;;;5.25;0.80;;;20.70;51.60;;;;;;5013248;28;20112;-81
2022/05/25 10:04:55;;;;;;;2.60;0.80;;;20.80;51.90;;;;;;5013512;28;20088;-81
2022/05/25 10:07:25;;;;;;;1.95;0.80;;;21.60;50.00;;;;;;5012157;28;20038;-82
2022/05/25 10:09:52;;;;;;;2.22;0.40;;;22.50;47.90;;;;;;5012251;28;20042;-81
2022/05/25 10:12:38;;;;;;;4.00;0.70;;;23.00;46.10;;;;;;5025137;28;20028;-82
2022/05/25 10:15:08;;;;;;;3.33;0.68;;;23.50;45.70;;;;;;5025987;28;20714;-82
2022/05/25 10:17:39;;;;;;;3.97;0.75;;;22.80;45.00;;;;;;5017757;28;20056;-82
2022/05/25 10:20:30;;;;;;;4.20;0.88;;;22.50;47.20;;;;;;5027456;28;20059;-81
2022/05/25 10:23:11;;;;;;;3.42;0.98;;;21.90;48.30;;;;;;5028044;28;20025;-82
2022/05/25 10:25:42;;;;;;;3.95;0.80;;;21.60;49.10;;;;;;5030006;28;20033;-81
2022/05/25 10:28:24;;;;;;;3.72;0.80;;;21.30;49.40;;;;;;5032995;28;20033;-82
2022/05/25 10:36:57;;;;;;;2.50;0.73;;;21.00;52.00;;;;;;5033543;28;20655;-82
2022/05/25 10:39:28;;;;;;;2.63;0.60;;;20.80;51.50;;;;;;5031962;28;20057;-81
2022/05/25 10:42:08;;;;;;;5.55;0.90;;;20.80;52.00;;;;;;5032987;28;20467;-81
2022/05/25 10:45:00;;;;;;;6.63;1.17;;;20.90;51.50;;;;;;5032875;28;20045;-81
2022/05/25 10:47:50;;;;;;;3.50;0.70;;;21.10;51.10;;;;;;5013236;28;20056;-81
2022/05/25 10:50:26;;;;;;;3.03;0.65;;;21.30;50.00;;;;;;5013360;28;20163;-82
2022/05/25 10:53:06;;;;;;;2.83;0.77;;;21.50;50.10;;;;;;5013214;28;20025;-81
2022/05/25 10:55:54;;;;;;;2.33;0.85;;;21.40;50.20;;;;;;5013234;28;20054;-81
2022/05/25 10:58:47;;;;;;;2.42;0.63;;;21.30;51.10;;;;;;5012998;28;20061;-81
2022/05/25 11:01:43;;;;;;;3.72;0.90;;;21.20;50.80;;;;;;5013224;28;20058;-82
2022/05/25 11:04:35;;;;;;;4.90;0.77;;;21.10;50.30;;;;;;5013040;28;20069;-81
2022/05/25 11:07:13;;;;;;;2.42;1.05;;;21.30;49.80;;;;;;5014213;28;20037;-81
2022/05/25 11:09:56;;;;;;;2.78;1.00;;;21.30;50.30;;;;;;5016912;28;20026;-81
2022/05/25 11:12:49;;;;;;;1.58;0.68;;;21.00;50.50;;;;;;5030833;28;20108;-81
2022/05/25 11:15:24;;;;;;;3.15;0.65;;;21.00;51.50;;;;;;5036592;28;20017;-81
2022/05/25 11:18:07;;;;;;;1.00;0.52;;;20.90;51.30;;;;;;5031256;28;20515;-81
2022/05/25 11:20:51;;;;;;;5.05;0.63;;;21.00;51.80;;;;;;5021438;28;20022;-81
2022/05/25 11:23:38;;;;;;;5.35;0.88;;;21.40;52.40;;;;;;5036011;28;20037;-81
2022/05/25 11:26:25;;;;;;;3.63;0.50;;;21.70;50.60;;;;;;5036390;28;20068;-81
2022/05/25 11:29:09;;;;;;;6.45;0.75;;;21.80;49.40;;;;;;5036029;28;20035;-81
2022/05/25 11:31:36;;;;;;;4.03;0.70;;;21.70;48.30;;;;;;5028146;28;20018;-81
2022/05/25 11:34:02;;;;;;;3.85;0.73;;;21.70;49.80;;;;;;5033663;28;20140;-81
2022/05/25 11:36:27;;;;;;;3.90;0.60;;;21.80;48.70;;;;;;5034931;28;20045;-81
2022/05/25 11:39:19;;;;;;;3.58;0.57;;;22.00;48.80;;;;;;5022692;28;20796;-81
2022/05/25 11:41:55;;;;;;;2.08;0.40;;;22.20;47.30;;;;;;5015869;28;20068;-81
2022/05/25 11:44:51;;;;;;;6.53;0.88;;;22.30;47.00;;;;;;5016147;28;20034;-81
2022/05/25 11:47:28;;;;;;;2.00;0.50;;;22.30;48.10;;;;;;5030749;28;20033;-81
2022/05/25 11:50:08;;;;;;;8.77;0.60;;;22.40;47.90;;;;;;5016230;28;20026;-81
2022/05/25 11:52:42;;;;;;;;;;;22.40;46.60;;;;;;5018459;28;20014;-81
2022/05/25 11:55:25;;;;;;;3.92;0.80;;;22.60;48.20;;;;;;5048070;28;19917;-81
2022/05/25 11:57:57;;;;;;;2.40;0.88;;;22.30;46.60;;;;;;5023578;28;20030;-81
2022/05/25 12:01:00;;;;;;;7.07;1.23;;;22.30;47.70;;;;;;5029959;28;20026;-81
2022/05/25 12:03:42;;;;;;;10.52;1.67;;;22.30;47.40;;;;;;5030726;28;20561;-81
2022/05/25 12:06:45;;;;;;;1.27;0.43;;;22.10;46.20;;;;;;5035077;28;20045;-81
2022/05/25 12:09:29;;;;;;;2.47;0.55;;;22.10;47.40;;;;;;5031991;28;20041;-82
2022/05/25 12:12:29;;;;;;;1.20;0.40;;;22.20;46.30;;;;;;5034799;28;20025;-81
2022/05/25 12:15:00;;;;;;;4.07;0.60;;;22.50;46.80;;;;;;5027421;28;20072;-81
2022/05/25 12:17:41;;;;;;;2.83;0.63;;;22.80;45.70;;;;;;5028454;28;20026;-81
2022/05/25 12:20:09;;;;;;;1.85;0.52;;;23.00;46.30;;;;;;5016001;28;20036;-82
2022/05/25 12:22:36;;;;;;;3.80;0.70;;;23.00;45.60;;;;;;5033335;28;20569;-82
2022/05/25 12:25:12;;;;;;;1.70;0.52;;;23.10;45.40;;;;;;5015282;28;20069;-81
2022/05/25 12:27:46;;;;;;;78.30;11.65;;;23.00;46.50;;;;;;5030548;28;20029;-81
2022/05/25 12:30:22;;;;;;;2.33;0.50;;;23.10;46.30;;;;;;5015313;28;20070;-81
2022/05/25 12:32:48;;;;;;;4.18;0.60;;;22.90;46.90;;;;;;5033015;28;20033;-81
2022/05/25 12:35:15;;;;;;;2.65;0.68;;;22.80;47.70;;;;;;5029774;28;20088;-81
2022/05/25 12:37:44;;;;;;;1.85;0.55;;;22.50;47.40;;;;;;5014237;28;20026;-82
2022/05/25 12:40:13;;;;;;;3.05;0.80;;;22.30;47.60;;;;;;5013406;28;20029;-81
2022/05/25 12:42:40;;;;;;;1.73;0.60;;;22.10;47.80;;;;;;5013581;28;20034;-81
2022/05/25 12:48:30;;;;;;;4.55;0.63;;;22.00;47.00;;;;;;5021955;28;20037;-81
2022/05/25 12:51:09;;;;;;;1.67;0.50;;;22.10;48.00;;;;;;5044376;28;20057;-81
2022/05/25 12:53:52;;;;;;;1.98;0.50;;;22.20;48.20;;;;;;5014780;28;20146;-79
2022/05/25 12:56:18;;;;;;;1.77;0.43;;;22.20;48.50;;;;;;5013441;28;20065;-82
2022/05/25 12:58:55;;;;;;;1.75;0.45;;;22.10;47.80;;;;;;5014619;28;20029;-81
2022/05/25 13:01:27;;;;;;;6.88;0.73;;;22.00;47.70;;;;;;5013758;28;20607;-81
2022/05/25 13:03:55;;;;;;;1.90;0.55;;;21.80;48.90;;;;;;5018850;28;20029;-80
2022/05/25 13:06:33;;;;;;;4.63;0.65;;;21.70;50.40;;;;;;5040089;28;20439;-81
2022/05/25 13:09:09;;;;;;;4.45;0.80;;;21.60;49.30;;;;;;5037603;28;20014;-81
2022/05/25 13:11:50;;;;;;;3.05;0.80;;;21.30;49.60;;;;;;5027028;28;20032;-81
2022/05/25 13:14:16;;;;;;;1.30;0.50;;;21.00;50.10;;;;;;5024226;28;20022;-82
2022/05/25 13:16:42;;;;;;;1.88;0.55;;;20.70;51.30;;;;;;5027433;28;20100;-80
2022/05/25 13:19:20;;;;;;;1.20;0.30;;;20.50;51.20;;;;;;5027175;28;20766;-81
2022/05/25 13:21:52;;;;;;;1.20;0.50;;;20.50;52.10;;;;;;5028484;28;20029;-81
2022/05/25 13:24:45;;;;;;;0.98;0.60;;;20.50;52.20;;;;;;5032324;28;20068;-80
2022/05/25 13:27:17;;;;;;;1.92;0.77;;;20.70;52.30;;;;;;5033596;28;20033;-79
2022/05/25 13:30:23;;;;;;;1.83;0.77;;;20.90;52.00;;;;;;5033504;28;20017;-79
2022/05/25 13:33:00;;;;;;;1.90;0.82;;;21.10;51.90;;;;;;5019378;28;20041;-79
2022/05/25 13:35:35;;;;;;;1.30;0.60;;;21.10;51.10;;;;;;5033728;28;20048;-79